Carter Lake, Iowa
Current Conditions -  °F | °C
As of 10:52 PM on Friday 28 Nov 2014 (Local Time) from KOMA Reporting Station
Broken Clouds Broken Clouds  
Wind Chill: 31°   Ceiling: 25000
Heat Index: 37°   Visibility: 10mi
Dew Point: 31°   Wind: 8mph
Humidity: 79%   Direction: 150°SSE
Pressure: 29.62"   Gusts: NA
Location:  41.29°N, 95.92°W
Report Text: KOMA 290452Z 15007KT 10SM BKN250 03/M01 A2962 RMK AO2 SLP035 T00281006
Loading
Personal Weather Stations






























Interactive Weather Map New forecast layout! Learn more

10-Day Weather Forecast

Advertisements
Track Severe Weather on mobile